International Virtual Aviation Organisation

Eastern Europe and Northern Asia MCD

 
UACC 201000Z 05008G15MPS 020V080 CAVOK 01/M15 Q1026 R04/0///70 NOSIG RMK QFE738/0984
QNH:(hPa/inHg/mmHg)1026 / 30.3 / 770
QFE:(hPa/inHg/mmHg)983 / 29.02 / 737
Temperature1
Dew Point-15
Visibility> 10000
WeatherCAVOK
Cloud Cover
Transition Height10000 m./34000 ft.
Transition LevelFL350
SQUAWK